createdAt,value
2023-09-06T00:00:29.243Z,10.03
2023-09-06T00:02:59.409Z,9.99
2023-09-06T00:05:28.295Z,9.95
2023-09-06T00:07:55.474Z,9.91
2023-09-06T00:10:22.876Z,9.87
2023-09-06T00:12:50.098Z,9.84
2023-09-06T00:15:17.333Z,9.83
2023-09-06T00:17:45.230Z,9.81
2023-09-06T00:20:21.217Z,9.77
2023-09-06T00:22:59.682Z,9.74
2023-09-06T00:25:28.590Z,9.71
2023-09-06T00:27:57.195Z,9.68
2023-09-06T00:30:24.487Z,9.66
2023-09-06T00:32:54.945Z,9.62
2023-09-06T00:35:26.991Z,9.58
2023-09-06T00:37:55.677Z,9.55
2023-09-06T00:40:24.253Z,9.53
2023-09-06T00:43:01.398Z,9.49
2023-09-06T00:45:52.534Z,9.45
2023-09-06T00:48:25.050Z,9.42
2023-09-06T00:50:55.344Z,9.39
2023-09-06T00:53:23.962Z,9.36
2023-09-06T00:55:51.456Z,9.34
2023-09-06T00:58:20.273Z,9.31
2023-09-06T01:04:56.534Z,9.27
2023-09-06T01:08:43.762Z,9.22
2023-09-06T01:11:56.785Z,9.17
2023-09-06T01:15:23.922Z,9.15
2023-09-06T01:18:40.747Z,9.09
2023-09-06T01:21:50.498Z,9.07
2023-09-06T01:24:57.952Z,9.06
2023-09-06T01:28:28.643Z,9.02
2023-09-06T01:31:57.587Z,8.98
2023-09-06T01:35:26.645Z,8.94
2023-09-06T01:38:43.629Z,8.90
2023-09-06T01:42:10.495Z,8.87
2023-09-06T01:45:37.646Z,8.82
2023-09-06T01:48:46.741Z,8.81
2023-09-06T01:52:14.316Z,8.77
2023-09-06T01:56:01.030Z,8.72
2023-09-06T01:59:48.089Z,8.69
2023-09-06T02:03:11.406Z,8.66
2023-09-06T02:06:16.670Z,8.66
2023-09-06T02:09:23.927Z,8.67
2023-09-06T02:12:31.253Z,8.64
2023-09-06T02:15:18.489Z,8.55
2023-09-06T02:18:16.447Z,8.48
2023-09-06T02:21:43.782Z,8.42
2023-09-06T02:24:54.035Z,8.40
2023-09-06T02:28:06.224Z,8.34
2023-09-06T02:31:33.167Z,8.31
2023-09-06T02:34:43.008Z,8.31
2023-09-06T02:37:39.043Z,8.33
2023-09-06T02:41:06.112Z,8.30
2023-09-06T02:44:15.176Z,8.25
2023-09-06T02:47:31.321Z,8.21
2023-09-06T02:50:41.212Z,8.16
2023-09-06T02:53:33.913Z,8.13
2023-09-06T02:56:52.430Z,8.14
2023-09-06T03:00:19.357Z,8.13
2023-09-06T03:03:32.249Z,8.14
2023-09-06T03:07:02.952Z,8.14
2023-09-06T03:10:12.892Z,8.12
2023-09-06T03:13:44.528Z,8.12
2023-09-06T03:17:12.626Z,8.09
2023-09-06T03:20:46.496Z,8.07
2023-09-06T03:24:14.009Z,8.07
2023-09-06T03:27:48.096Z,8.05
2023-09-06T03:30:57.212Z,8.04
2023-09-06T03:34:04.891Z,7.99
2023-09-06T03:37:14.604Z,7.97
2023-09-06T03:39:50.680Z,7.97
2023-09-06T03:42:43.410Z,7.97
2023-09-06T03:45:55.928Z,7.96
2023-09-06T03:49:23.024Z,7.94
2023-09-06T03:52:19.345Z,7.89
2023-09-06T03:55:11.955Z,7.87
2023-09-06T03:58:19.893Z,7.86
2023-09-06T04:01:26.961Z,7.84
2023-09-06T04:05:13.918Z,7.74
2023-09-06T04:08:21.426Z,7.73
2023-09-06T04:11:28.544Z,7.74
2023-09-06T04:15:15.863Z,7.69
2023-09-06T04:18:24.160Z,7.70
2023-09-06T04:21:33.124Z,7.72
2023-09-06T04:24:59.597Z,7.73
2023-09-06T04:28:26.989Z,7.73
2023-09-06T04:31:35.762Z,7.72
2023-09-06T04:35:29.403Z,7.72
2023-09-06T04:39:16.583Z,7.71
2023-09-06T04:43:00.428Z,7.69
2023-09-06T04:46:28.564Z,7.66
2023-09-06T04:50:00.014Z,7.65
2023-09-06T04:52:47.163Z,7.67
2023-09-06T04:56:16.224Z,7.70
2023-09-06T04:59:44.568Z,7.59
2023-09-06T05:03:16.177Z,7.56
2023-09-06T05:14:06.507Z,7.75
2023-09-06T05:17:55.755Z,7.77
2023-09-06T05:25:40.417Z,7.90
2023-09-06T05:33:29.148Z,8.09
2023-09-06T05:37:18.217Z,8.18
2023-09-06T05:44:38.484Z,8.40
2023-09-06T05:48:35.614Z,8.53
2023-09-06T05:52:47.549Z,8.67
2023-09-06T05:56:47.796Z,8.83
2023-09-06T06:12:29.409Z,9.55
2023-09-06T06:16:31.256Z,9.71
2023-09-06T06:20:30.810Z,9.92
2023-09-06T06:24:12.867Z,10.13
2023-09-06T06:27:27.096Z,10.34
2023-09-06T06:30:36.129Z,10.50
2023-09-06T06:33:50.179Z,10.68
2023-09-06T06:37:37.361Z,10.86
2023-09-06T06:41:24.578Z,11.08
2023-09-06T06:44:40.121Z,11.31
2023-09-06T06:48:07.809Z,11.50
2023-09-06T06:51:40.999Z,11.74
2023-09-06T06:55:29.200Z,12.02
2023-09-06T06:59:16.595Z,12.33
2023-09-06T07:03:03.781Z,12.67
2023-09-06T07:06:52.745Z,13.05
2023-09-06T07:10:14.301Z,13.45
2023-09-06T07:12:53.694Z,13.77
2023-09-06T07:16:22.031Z,14.01
2023-09-06T07:19:10.198Z,14.37
2023-09-06T07:21:38.733Z,14.60
2023-09-06T07:24:11.684Z,14.82
2023-09-06T07:26:44.593Z,15.01
2023-09-06T07:29:12.212Z,15.21
2023-09-06T07:31:40.768Z,15.46
2023-09-06T07:34:11.356Z,15.74
2023-09-06T07:36:39.075Z,15.98
2023-09-06T07:39:10.996Z,16.19
2023-09-06T07:42:01.757Z,16.40
2023-09-06T07:45:28.793Z,16.60
2023-09-06T07:48:56.550Z,16.80
2023-09-06T07:51:29.414Z,17.00
2023-09-06T07:54:08.925Z,17.19
2023-09-06T07:56:36.268Z,17.39
2023-09-06T07:59:27.594Z,17.54
2023-09-06T08:01:55.321Z,17.73
2023-09-06T08:04:23.407Z,17.88
2023-09-06T08:06:51.609Z,18.03
2023-09-06T08:09:19.232Z,18.14
2023-09-06T08:11:46.758Z,18.30
2023-09-06T08:14:15.105Z,18.47
2023-09-06T08:16:42.499Z,18.61
2023-09-06T08:19:09.913Z,18.75
2023-09-06T08:21:37.408Z,18.85
2023-09-06T08:24:05.449Z,18.93
2023-09-06T08:26:33.188Z,19.01
2023-09-06T08:29:00.536Z,19.08
2023-09-06T08:31:28.182Z,19.16
2023-09-06T08:33:55.654Z,19.27
2023-09-06T08:36:23.641Z,19.45
2023-09-06T08:38:51.016Z,19.65
2023-09-06T08:41:19.109Z,19.86
2023-09-06T08:43:47.646Z,20.04
2023-09-06T08:46:46.371Z,20.17
2023-09-06T08:49:15.827Z,20.39
2023-09-06T08:51:45.149Z,20.71
2023-09-06T08:54:14.236Z,21.04
2023-09-06T08:56:42.885Z,21.36
2023-09-06T08:59:10.832Z,21.76
2023-09-06T09:01:39.538Z,22.07
2023-09-06T09:04:07.403Z,22.25
2023-09-06T09:06:35.172Z,22.39
2023-09-06T09:09:19.432Z,22.61
2023-09-06T09:11:51.780Z,23.14
2023-09-06T09:14:27.631Z,23.54
2023-09-06T09:17:01.241Z,23.92
2023-09-06T09:19:29.162Z,23.86
2023-09-06T09:22:01.243Z,23.88
2023-09-06T09:24:32.261Z,24.23
2023-09-06T09:27:00.259Z,24.25
2023-09-06T09:29:30.094Z,24.23
2023-09-06T09:32:05.552Z,24.46
2023-09-06T09:34:34.437Z,24.77
2023-09-06T09:38:01.493Z,24.94
2023-09-06T09:43:27.304Z,25.29
2023-09-06T09:45:56.715Z,25.38
2023-09-06T09:49:24.361Z,25.48
2023-09-06T09:51:53.683Z,25.43
2023-09-06T09:54:25.320Z,25.48
2023-09-06T09:57:06.626Z,25.64
2023-09-06T09:59:37.936Z,25.81
2023-09-06T10:02:10.874Z,25.91
2023-09-06T10:04:44.391Z,25.99
2023-09-06T10:07:15.930Z,26.06
2023-09-06T10:10:08.792Z,26.13
2023-09-06T10:12:36.602Z,26.17
2023-09-06T10:15:45.448Z,26.30
2023-09-06T10:18:56.447Z,26.35
2023-09-06T10:21:47.405Z,26.48
2023-09-06T10:25:06.430Z,26.69
2023-09-06T10:27:35.570Z,26.49
2023-09-06T10:31:15.092Z,26.60
2023-09-06T10:35:03.328Z,26.79
2023-09-06T10:39:03.230Z,27.04
2023-09-06T10:42:52.509Z,27.09
2023-09-06T10:46:53.504Z,27.21
2023-09-06T10:51:01.065Z,27.59
2023-09-06T10:54:48.834Z,27.96
2023-09-06T10:58:40.255Z,28.30
2023-09-06T11:02:26.306Z,28.77
2023-09-06T11:06:23.007Z,28.93
2023-09-06T11:10:13.937Z,28.62
2023-09-06T11:14:13.712Z,28.08
2023-09-06T11:18:01.669Z,28.35
2023-09-06T11:21:49.388Z,28.55
2023-09-06T11:25:37.261Z,28.52
2023-09-06T11:29:27.396Z,28.79
2023-09-06T11:33:15.728Z,28.81
2023-09-06T11:37:06.573Z,28.81
2023-09-06T11:40:54.308Z,29.29
2023-09-06T11:44:42.713Z,29.73
2023-09-06T11:48:30.816Z,29.52
2023-09-06T11:52:21.632Z,29.52
2023-09-06T11:56:12.680Z,29.22
2023-09-06T12:00:05.901Z,28.75
2023-09-06T12:02:53.322Z,28.78
2023-09-06T12:05:34.939Z,29.09
2023-09-06T12:08:11.349Z,29.35
2023-09-06T12:10:41.760Z,29.39
2023-09-06T12:13:09.947Z,29.05
2023-09-06T12:15:37.261Z,29.23
2023-09-06T12:18:05.284Z,29.49
2023-09-06T12:20:34.754Z,29.61
2023-09-06T12:23:02.349Z,29.55
2023-09-06T12:25:29.908Z,29.18
2023-09-06T12:27:57.306Z,28.98
2023-09-06T12:30:25.511Z,28.71
2023-09-06T12:32:53.682Z,28.67
2023-09-06T12:35:21.689Z,28.90
2023-09-06T12:37:49.025Z,28.94
2023-09-06T12:40:17.007Z,28.72
2023-09-06T12:42:46.498Z,28.40
2023-09-06T12:45:28.304Z,28.30
2023-09-06T12:47:57.330Z,28.25
2023-09-06T12:50:25.648Z,28.15
2023-09-06T12:52:54.355Z,28.26
2023-09-06T12:55:22.216Z,28.46
2023-09-06T12:57:52.502Z,28.48
2023-09-06T13:00:20.691Z,28.50
2023-09-06T13:02:48.379Z,28.30
2023-09-06T13:05:21.811Z,28.00
2023-09-06T13:07:49.358Z,28.02
2023-09-06T13:10:17.449Z,28.09
2023-09-06T13:12:45.885Z,28.09
2023-09-06T13:15:13.287Z,28.22
2023-09-06T13:17:40.772Z,28.14
2023-09-06T13:20:12.222Z,28.07
2023-09-06T13:22:40.276Z,28.06
2023-09-06T13:25:08.442Z,27.94
2023-09-06T13:27:36.623Z,27.89
2023-09-06T13:30:06.062Z,28.08
2023-09-06T13:32:33.912Z,28.09
2023-09-06T13:35:01.701Z,28.09
2023-09-06T13:37:29.465Z,28.14
2023-09-06T13:39:56.748Z,28.02
2023-09-06T13:42:24.853Z,27.99
2023-09-06T13:44:52.403Z,27.96
2023-09-06T13:47:19.820Z,28.04
2023-09-06T13:49:47.178Z,28.15
2023-09-06T13:52:16.442Z,28.33
2023-09-06T13:54:45.102Z,28.29
2023-09-06T13:57:12.382Z,28.40
2023-09-06T13:59:40.823Z,28.38
2023-09-06T14:02:08.359Z,28.18
2023-09-06T14:04:36.848Z,27.85
2023-09-06T14:07:04.589Z,27.72
2023-09-06T14:09:32.349Z,27.75
2023-09-06T14:11:59.692Z,27.75
2023-09-06T14:14:27.136Z,27.68
2023-09-06T14:16:54.823Z,27.66
2023-09-06T14:19:22.031Z,27.70
2023-09-06T14:21:49.987Z,27.55
2023-09-06T14:24:17.711Z,27.64
2023-09-06T14:26:44.990Z,27.64
2023-09-06T14:29:16.555Z,27.67
2023-09-06T14:31:44.725Z,27.65
2023-09-06T14:34:12.216Z,27.59
2023-09-06T14:36:40.313Z,27.44
2023-09-06T14:39:09.623Z,27.58
2023-09-06T14:41:37.070Z,27.49
2023-09-06T14:44:05.102Z,27.33
2023-09-06T14:46:32.545Z,27.35
2023-09-06T14:48:59.918Z,27.43
2023-09-06T14:51:27.371Z,27.51
2023-09-06T14:53:56.126Z,27.39
2023-09-06T14:56:23.641Z,27.30
2023-09-06T14:58:51.375Z,27.29
2023-09-06T15:01:19.421Z,27.37
2023-09-06T15:03:47.410Z,27.36
2023-09-06T15:06:15.225Z,27.43
2023-09-06T15:08:43.754Z,27.40
2023-09-06T15:11:11.223Z,27.27
2023-09-06T15:13:39.469Z,27.26
2023-09-06T15:16:08.408Z,27.26
2023-09-06T15:18:36.279Z,27.21
2023-09-06T15:21:04.669Z,27.10
2023-09-06T15:23:32.914Z,27.06
2023-09-06T15:26:00.811Z,26.94
2023-09-06T15:28:28.894Z,26.76
2023-09-06T15:30:57.504Z,26.64
2023-09-06T15:33:28.133Z,26.48
2023-09-06T15:35:57.141Z,26.31
2023-09-06T15:38:24.971Z,26.11
2023-09-06T15:40:53.288Z,26.05
2023-09-06T15:43:21.048Z,26.00
2023-09-06T15:45:49.511Z,25.93
2023-09-06T15:48:17.026Z,25.83
2023-09-06T15:50:44.683Z,25.73
2023-09-06T15:53:12.922Z,25.67
2023-09-06T15:55:41.342Z,25.57
2023-09-06T15:58:10.974Z,25.47
2023-09-06T16:00:38.578Z,25.34
2023-09-06T16:03:06.322Z,25.20
2023-09-06T16:05:35.120Z,25.06
2023-09-06T16:08:02.571Z,24.96
2023-09-06T16:10:30.042Z,24.84
2023-09-06T16:12:57.739Z,24.68
2023-09-06T16:15:26.795Z,24.58
2023-09-06T16:17:55.616Z,24.47
2023-09-06T16:20:24.398Z,24.36
2023-09-06T16:22:52.826Z,24.27
2023-09-06T16:25:22.327Z,24.15
2023-09-06T16:27:50.483Z,24.04
2023-09-06T16:30:19.483Z,23.93
2023-09-06T16:32:53.195Z,23.81
2023-09-06T16:35:21.406Z,23.69
2023-09-06T16:37:53.797Z,23.57
2023-09-06T16:40:26.208Z,23.43
2023-09-06T16:42:53.875Z,23.30
2023-09-06T16:45:21.695Z,23.18
2023-09-06T16:47:51.513Z,23.05
2023-09-06T16:50:21.032Z,22.96
2023-09-06T16:52:49.493Z,22.87
2023-09-06T16:55:17.458Z,22.75
2023-09-06T16:57:45.263Z,22.64
2023-09-06T17:00:14.848Z,22.52
2023-09-06T17:02:42.376Z,22.40
2023-09-06T17:05:12.146Z,22.28
2023-09-06T17:07:39.668Z,22.18
2023-09-06T17:10:10.016Z,22.09
2023-09-06T17:12:38.769Z,21.99
2023-09-06T17:15:25.423Z,21.89
2023-09-06T17:17:52.834Z,21.78
2023-09-06T17:20:25.165Z,21.66
2023-09-06T17:22:52.865Z,21.53
2023-09-06T17:25:23.315Z,21.40
2023-09-06T17:27:50.800Z,21.29
2023-09-06T17:30:22.287Z,21.17
2023-09-06T17:33:04.816Z,21.05
2023-09-06T17:35:32.654Z,20.93
2023-09-06T17:38:01.569Z,20.82
2023-09-06T17:40:30.121Z,20.71
2023-09-06T17:42:57.962Z,20.60
2023-09-06T17:45:25.772Z,20.49
2023-09-06T17:47:54.730Z,20.39
2023-09-06T17:50:23.422Z,20.29
2023-09-06T17:52:52.688Z,20.20
2023-09-06T17:55:21.277Z,20.10
2023-09-06T17:57:49.445Z,20.00
2023-09-06T18:00:24.657Z,19.90
2023-09-06T18:02:52.433Z,19.79
2023-09-06T18:05:21.612Z,19.67
2023-09-06T18:07:50.062Z,19.57
2023-09-06T18:10:17.971Z,19.44
2023-09-06T18:12:46.492Z,19.32
2023-09-06T18:15:14.563Z,19.22
2023-09-06T18:17:52.726Z,19.11
2023-09-06T18:20:20.782Z,19.00
2023-09-06T18:22:49.103Z,18.91
2023-09-06T18:25:16.432Z,18.81
2023-09-06T18:27:48.754Z,18.72
2023-09-06T18:30:25.855Z,18.63
2023-09-06T18:32:58.216Z,18.51
2023-09-06T18:35:28.815Z,18.41
2023-09-06T18:37:56.130Z,18.32
2023-09-06T18:40:24.032Z,18.23
2023-09-06T18:42:51.698Z,18.12
2023-09-06T18:45:22.120Z,18.00
2023-09-06T18:47:52.198Z,17.91
2023-09-06T18:50:20.867Z,17.83
2023-09-06T18:52:50.028Z,17.74
2023-09-06T18:55:21.785Z,17.65
2023-09-06T18:58:04.763Z,17.53
2023-09-06T19:00:34.425Z,17.42
2023-09-06T19:03:07.330Z,17.31
2023-09-06T19:05:36.760Z,17.21
2023-09-06T19:08:05.366Z,17.13
2023-09-06T19:10:34.452Z,17.05
2023-09-06T19:13:06.246Z,16.97
2023-09-06T19:15:34.995Z,16.88
2023-09-06T19:18:03.135Z,16.80
2023-09-06T19:20:31.376Z,16.72
2023-09-06T19:22:59.079Z,16.60
2023-09-06T19:25:29.572Z,16.49
2023-09-06T19:27:58.332Z,16.38
2023-09-06T19:30:30.181Z,16.29
2023-09-06T19:32:58.195Z,16.20
2023-09-06T19:35:26.634Z,16.11
2023-09-06T19:37:54.554Z,15.99
2023-09-06T19:40:23.354Z,15.89
2023-09-06T19:42:54.942Z,15.79
2023-09-06T19:45:23.013Z,15.72
2023-09-06T19:47:51.112Z,15.68
2023-09-06T19:50:22.535Z,15.65
2023-09-06T19:52:54.244Z,15.60
2023-09-06T19:55:23.822Z,15.55
2023-09-06T19:57:51.797Z,15.50
2023-09-06T20:00:19.508Z,15.48
2023-09-06T20:02:48.073Z,15.44
2023-09-06T20:05:16.034Z,15.39
2023-09-06T20:07:44.818Z,15.33
2023-09-06T20:10:13.510Z,15.28
2023-09-06T20:12:43.014Z,15.22
2023-09-06T20:15:12.369Z,15.15
2023-09-06T20:17:43.553Z,15.09
2023-09-06T20:20:11.795Z,15.01
2023-09-06T20:22:39.263Z,14.95
2023-09-06T20:25:07.387Z,14.90
2023-09-06T20:27:35.317Z,14.87
2023-09-06T20:30:03.209Z,14.82
2023-09-06T20:32:31.692Z,14.77
2023-09-06T20:34:59.444Z,14.71
2023-09-06T20:37:27.081Z,14.68
2023-09-06T20:39:55.067Z,14.63
2023-09-06T20:42:23.129Z,14.57
2023-09-06T20:44:52.720Z,14.51
2023-09-06T20:47:20.729Z,14.47
2023-09-06T20:49:49.408Z,14.42
2023-09-06T20:52:17.247Z,14.38
2023-09-06T20:54:44.935Z,14.35
2023-09-06T20:57:12.600Z,14.33
2023-09-06T20:59:40.347Z,14.30
2023-09-06T21:02:08.178Z,14.26
2023-09-06T21:04:35.709Z,14.22
2023-09-06T21:07:03.178Z,14.18
2023-09-06T21:09:30.592Z,14.12
2023-09-06T21:11:58.089Z,14.07
2023-09-06T21:14:25.354Z,14.00
2023-09-06T21:16:52.652Z,13.95
2023-09-06T21:19:19.825Z,13.92
2023-09-06T21:21:46.962Z,13.89
2023-09-06T21:24:14.301Z,13.85
2023-09-06T21:26:41.676Z,13.81
2023-09-06T21:29:18.096Z,13.78
2023-09-06T21:31:53.525Z,13.71
2023-09-06T21:34:25.760Z,13.67
2023-09-06T21:36:53.327Z,13.63
2023-09-06T21:39:20.584Z,13.59
2023-09-06T21:41:48.954Z,13.56
2023-09-06T21:44:17.831Z,13.53
2023-09-06T21:46:45.245Z,13.50
2023-09-06T21:49:12.469Z,13.46
2023-09-06T21:51:39.706Z,13.43
2023-09-06T21:54:06.954Z,13.41
2023-09-06T21:56:34.225Z,13.39
2023-09-06T21:59:02.684Z,13.37
2023-09-06T22:01:30.006Z,13.33
2023-09-06T22:03:57.348Z,13.30
2023-09-06T22:06:24.554Z,13.26
2023-09-06T22:08:51.981Z,13.21
2023-09-06T22:11:19.149Z,13.17
2023-09-06T22:13:46.297Z,13.13
2023-09-06T22:16:13.750Z,13.08
2023-09-06T22:18:41.073Z,13.04
2023-09-06T22:21:08.424Z,13.00
2023-09-06T22:23:35.992Z,12.95
2023-09-06T22:26:03.428Z,12.89
2023-09-06T22:28:33.695Z,12.86
2023-09-06T22:31:01.413Z,12.83
2023-09-06T22:33:31.865Z,12.81
2023-09-06T22:35:59.352Z,12.77
2023-09-06T22:38:26.578Z,12.74
2023-09-06T22:40:53.910Z,12.69
2023-09-06T22:43:21.178Z,12.66
2023-09-06T22:45:51.298Z,12.60
2023-09-06T22:48:18.794Z,12.56
2023-09-06T22:50:46.751Z,12.50
2023-09-06T22:53:13.929Z,12.46
2023-09-06T22:55:41.340Z,12.41
2023-09-06T22:58:08.941Z,12.38
2023-09-06T23:00:39.711Z,12.33
2023-09-06T23:03:10.187Z,12.29
2023-09-06T23:05:37.945Z,12.26
2023-09-06T23:08:06.243Z,12.23
2023-09-06T23:10:34.768Z,12.20
2023-09-06T23:13:02.513Z,12.17
2023-09-06T23:15:30.613Z,12.13
2023-09-06T23:17:58.150Z,12.09
2023-09-06T23:20:30.399Z,12.04
2023-09-06T23:23:00.080Z,11.99
2023-09-06T23:25:37.266Z,11.95
2023-09-06T23:28:16.863Z,11.91
2023-09-06T23:30:50.829Z,11.87
2023-09-06T23:33:28.678Z,11.84
2023-09-06T23:35:56.112Z,11.81
2023-09-06T23:38:23.628Z,11.79
2023-09-06T23:40:50.885Z,11.77
2023-09-06T23:43:18.182Z,11.74
2023-09-06T23:45:46.571Z,11.72
2023-09-06T23:48:13.972Z,11.70
2023-09-06T23:50:41.412Z,11.66
2023-09-06T23:53:08.535Z,11.63
2023-09-06T23:55:36.885Z,11.61
2023-09-06T23:58:05.818Z,11.57
